VABP/BHO METAR and TAF weather

Enter ICAO airport designator
Station Type Date Time Source
VABP METAR 2021/01/22 06:30 UTC NOAA

VABP 220630Z 15005KT 6000 NSC 26/04 Q1017 NOSIG


Station Type Date Time Source
VABP Decoded METAR 2021/01/22 06:30 UTC NOAA

Bhopal / Bairagarh, India (VABP) 23-17N 077-21E 523M
Jan 22, 2021 - 01:30 AM EST / 2021.01.22 0630 UTC
Wind: from the SSE (150 degrees) at 6 MPH (5 KT):0
Visibility: 3 mile(s):0
Temperature: 78 F (26 C)
Dew Point: 39 F (4 C)
Relative Humidity: 24%
Pressure (altimeter): 30.03 in. Hg (1017 hPa)
ob: VABP 220630Z 15005KT 6000 NSC 26/04 Q1017 NOSIG
cycle: 6

Station Type Date Time Source
VABP TAF 2021/01/19 12:00 UTC NOAA

TAF VABP 191100Z 1912/2018 29010KT 4000 HZ SCT100
BECMG 1916/1918 32005KT 3000 HZ NSC
BECMG 2001/2003 02005KT 1000 MIFG NSC
BECMG 2004/2006 32010KT 4000 HZ FEW100
BECMG 2015/2017 36005KT 3000 HZ NSC

Example: see airport list